Time;durP1;ratioP1;P1;durP2;ratioP2;P2;SDS_P1;SDS_P2;PMS_P1;PMS_P2;Temp;Humidity;BMP_temperature;BMP_pressure;BME280_temperature;BME280_humidity;BME280_pressure;Samples;Min_cycle;Max_cycle;Signal;HPM_P1;HPM_P2
2021/01/19 00:01:33;;;;;;;9.25;1.80;;;;;;;11.12;63.02;101552.59;5029780;28;20518;-61
2021/01/19 00:03:58;;;;;;;17.27;2.25;;;;;;;11.13;61.95;101556.16;5041569;28;20568;-61
2021/01/19 00:06:24;;;;;;;8.27;2.38;;;;;;;11.14;62.21;101550.91;5013915;28;20038;-61
2021/01/19 00:08:49;;;;;;;7.63;1.80;;;;;;;11.16;62.56;101558.84;5011266;28;20405;-61
2021/01/19 00:11:15;;;;;;;19.42;2.10;;;;;;;11.19;62.25;101573.06;5001056;28;20403;-61
2021/01/19 00:13:40;;;;;;;9.55;2.20;;;;;;;11.20;61.98;101568.66;5013194;28;20037;-61
2021/01/19 00:16:05;;;;;;;18.40;1.88;;;;;;;11.21;62.57;101565.19;5031360;28;20526;-61
2021/01/19 00:18:31;;;;;;;4.80;1.35;;;;;;;11.23;62.23;101574.00;5030705;28;20111;-61
2021/01/19 00:20:56;;;;;;;11.60;1.50;;;;;;;11.24;62.58;101580.19;5031249;28;20049;-61
2021/01/19 00:23:21;;;;;;;13.18;1.95;;;;;;;11.24;61.75;101573.16;5030440;28;20494;-61
2021/01/19 00:25:47;;;;;;;10.52;1.70;;;;;;;11.24;61.50;101569.63;5030914;28;20437;-61
2021/01/19 00:28:13;;;;;;;8.77;1.42;;;;;;;11.25;62.15;101577.59;5031516;28;20033;-60
2021/01/19 00:30:38;;;;;;;5.45;1.10;;;;;;;11.25;61.94;101577.59;5030409;28;20057;-61
2021/01/19 00:33:04;;;;;;;6.65;1.50;;;;;;;11.22;61.40;101581.94;5030957;28;20570;-61
2021/01/19 00:35:29;;;;;;;4.10;1.60;;;;;;;11.21;61.76;101580.13;5029653;28;20060;-61
2021/01/19 00:37:56;;;;;;;8.00;1.60;;;;;;;11.20;62.05;101568.66;5029785;28;20030;-61
2021/01/19 00:40:21;;;;;;;6.70;1.30;;;;;;;11.19;61.81;101577.44;5030644;28;20460;-61
2021/01/19 00:42:46;;;;;;;6.80;1.88;;;;;;;11.18;61.04;101571.25;5030444;28;20065;-61
2021/01/19 00:45:12;;;;;;;5.13;1.42;;;;;;;11.19;61.51;101578.34;5041773;28;20034;-61
2021/01/19 00:47:37;;;;;;;8.55;2.45;;;;;;;11.19;61.14;101583.63;5011188;28;20046;-61
2021/01/19 00:50:02;;;;;;;10.48;2.30;;;;;;;11.21;61.68;101582.78;5009777;28;20064;-62
2021/01/19 00:52:28;;;;;;;7.90;2.00;;;;;;;11.21;61.00;101585.41;5010793;28;20117;-61
2021/01/19 00:54:53;;;;;;;4.85;1.50;;;;;;;11.23;61.45;101586.34;5011024;28;20042;-60
2021/01/19 00:57:18;;;;;;;10.48;1.77;;;;;;;11.25;60.88;101588.16;5010415;28;20380;-61
2021/01/19 00:59:44;;;;;;;6.45;1.80;;;;;;;11.28;61.67;101588.28;5011287;28;20054;-61
2021/01/19 01:02:09;;;;;;;12.02;1.75;;;;;;;11.29;60.79;101594.44;5010177;28;20049;-61
2021/01/19 01:04:34;;;;;;;17.20;1.95;;;;;;;11.31;61.17;101605.94;5008989;28;20053;-61
2021/01/19 01:07:00;;;;;;;10.73;1.85;;;;;;;11.31;61.08;101609.47;5010694;28;20466;-61
2021/01/19 01:09:25;;;;;;;3.38;1.38;;;;;;;11.33;61.14;101617.44;5010601;28;20046;-61
2021/01/19 01:11:50;;;;;;;6.50;2.80;;;;;;;11.32;61.30;101611.28;5010177;28;20399;-61
2021/01/19 01:14:16;;;;;;;8.98;1.60;;;;;;;11.32;60.67;101611.28;5009247;28;20129;-61
2021/01/19 01:16:41;;;;;;;6.13;1.23;;;;;;;11.33;60.33;101606.88;5009937;28;20030;-62
2021/01/19 01:19:06;;;;;;;4.95;1.33;;;;;;;11.34;61.05;101609.56;5017145;28;20055;-61
2021/01/19 01:21:32;;;;;;;8.80;2.13;;;;;;;11.35;61.03;101605.19;5029704;28;20514;-62
2021/01/19 01:23:57;;;;;;;5.68;1.30;;;;;;;11.36;60.14;101612.22;5038072;28;20037;-61
2021/01/19 01:26:23;;;;;;;5.25;1.52;;;;;;;11.35;60.20;101610.47;5012914;28;20056;-61
2021/01/19 01:28:48;;;;;;;10.68;1.40;;;;;;;11.33;60.75;101613.06;5009388;28;20104;-62
2021/01/19 01:31:14;;;;;;;11.70;1.73;;;;;;;11.35;60.04;101613.09;5010405;28;20037;-62
2021/01/19 01:33:39;;;;;;;10.68;1.83;;;;;;;11.36;60.23;101609.59;5010161;28;20034;-62
2021/01/19 01:36:04;;;;;;;13.35;2.63;;;;;;;11.37;60.55;101606.09;5019316;28;20048;-61
2021/01/19 01:38:30;;;;;;;15.85;5.75;;;;;;;11.38;60.27;101605.25;5026590;28;20410;-63
2021/01/19 01:40:55;;;;;;;13.93;1.52;;;;;;;11.38;60.83;101599.97;5016905;28;20057;-61
2021/01/19 01:43:20;;;;;;;9.40;1.65;;;;;;;11.38;59.95;101592.03;5046903;28;20095;-61
2021/01/19 01:45:46;;;;;;;8.77;1.88;;;;;;;11.38;60.37;101594.66;5028487;28;20124;-62
2021/01/19 01:48:11;;;;;;;8.07;1.50;;;;;;;11.37;60.13;101595.53;5028481;28;20099;-62
2021/01/19 01:50:36;;;;;;;5.45;1.30;;;;;;;11.38;59.82;101592.03;5028084;28;20048;-62
2021/01/19 01:53:02;;;;;;;9.80;1.75;;;;;;;11.37;60.01;101599.06;5025539;28;20042;-62
2021/01/19 01:55:27;;;;;;;14.52;3.10;;;;;;;11.37;59.63;101598.16;5028368;28;20072;-62
2021/01/19 01:57:53;;;;;;;13.73;5.35;;;;;;;11.35;60.02;101590.22;5016394;28;20607;-62
2021/01/19 02:00:18;;;;;;;12.40;3.95;;;;;;;11.35;60.08;101595.50;5030108;28;20048;-62
2021/01/19 02:02:43;;;;;;;12.40;1.48;;;;;;;11.35;59.43;101587.56;5028798;28;20056;-62
2021/01/19 02:05:09;;;;;;;9.73;2.15;;;;;;;11.35;59.35;101594.59;5029114;28;20075;-62
2021/01/19 02:07:34;;;;;;;7.22;1.80;;;;;;;11.35;59.99;101592.84;5029189;28;20171;-62
2021/01/19 02:09:59;;;;;;;10.75;2.58;;;;;;;11.35;59.56;101597.25;5029730;28;20390;-61
2021/01/19 02:12:25;;;;;;;12.88;1.80;;;;;;;11.33;59.85;101589.28;5029035;28;20045;-62
2021/01/19 02:14:50;;;;;;;5.35;1.42;;;;;;;11.33;59.57;101588.38;5029969;28;20045;-61
2021/01/19 02:17:15;;;;;;;6.13;1.50;;;;;;;11.32;59.29;101589.22;5029562;28;20038;-62
2021/01/19 02:19:41;;;;;;;7.57;1.60;;;;;;;11.30;59.57;101585.63;5028911;28;20053;-62
2021/01/19 02:22:07;;;;;;;6.65;1.50;;;;;;;11.26;58.76;101595.25;5029290;28;20075;-62
2021/01/19 02:24:32;;;;;;;14.68;1.73;;;;;;;11.25;58.82;101587.28;5031204;28;20038;-62
2021/01/19 02:26:58;;;;;;;10.80;2.08;;;;;;;11.23;59.39;101595.16;5033705;28;20050;-62
2021/01/19 02:29:23;;;;;;;4.78;2.15;;;;;;;11.19;59.40;101593.31;5033054;28;20049;-62
2021/01/19 02:31:48;;;;;;;9.02;1.88;;;;;;;11.19;58.54;101591.56;5033363;28;20041;-62
2021/01/19 02:34:14;;;;;;;10.85;2.40;;;;;;;11.19;59.13;101596.84;5037960;28;20502;-62
2021/01/19 02:36:39;;;;;;;6.88;1.65;;;;;;;11.21;58.49;101590.72;5023632;28;20045;-62
2021/01/19 02:39:04;;;;;;;13.88;2.50;;;;;;;11.21;59.14;101586.31;5033100;28;20041;-62
2021/01/19 02:41:30;;;;;;;14.15;1.80;;;;;;;11.23;58.88;101591.63;5046791;28;20041;-62
2021/01/19 02:43:56;;;;;;;7.75;2.10;;;;;;;11.22;58.98;101592.50;5032168;28;20037;-62
2021/01/19 02:46:21;;;;;;;4.20;1.73;;;;;;;11.21;57.98;101598.63;5032706;28;20056;-63
2021/01/19 02:48:47;;;;;;;13.68;1.52;;;;;;;11.19;58.19;101593.31;5031838;28;20038;-62
2021/01/19 02:51:12;;;;;;;7.60;1.83;;;;;;;11.19;58.47;101609.16;5032776;28;20045;-63
2021/01/19 02:53:37;;;;;;;5.90;1.40;;;;;;;11.18;58.72;101605.63;5032954;28;20618;-62
2021/01/19 02:56:03;;;;;;;6.93;1.35;;;;;;;11.19;57.96;101607.41;5030753;28;20044;-63
2021/01/19 02:58:28;;;;;;;13.60;1.60;;;;;;;11.18;57.95;101617.94;5032539;28;20498;-63
2021/01/19 03:00:53;;;;;;;12.45;1.60;;;;;;;11.17;58.55;101611.75;5031230;28;20498;-63
2021/01/19 03:03:19;;;;;;;8.55;1.98;;;;;;;11.16;58.55;101612.59;5032497;28;20056;-62
2021/01/19 03:05:44;;;;;;;13.23;1.60;;;;;;;11.15;57.93;101610.84;5032567;28;20033;-63
2021/01/19 03:08:10;;;;;;;14.73;1.50;;;;;;;11.17;58.38;101624.06;5032346;28;20045;-62
2021/01/19 03:10:35;;;;;;;10.85;1.52;;;;;;;11.16;58.45;101620.53;5028887;28;20103;-63
2021/01/19 03:13:00;;;;;;;6.93;1.63;;;;;;;11.18;58.14;101625.88;5012428;28;20052;-63
2021/01/19 03:15:26;;;;;;;11.50;1.50;;;;;;;11.17;58.07;101624.97;5012325;28;20076;-62
2021/01/19 03:17:51;;;;;;;7.80;1.40;;;;;;;11.16;58.49;101630.19;5012793;28;20446;-62
2021/01/19 03:20:16;;;;;;;9.35;1.13;;;;;;;11.16;57.66;101635.47;5012401;28;20045;-63
2021/01/19 03:22:42;;;;;;;4.57;1.20;;;;;;;11.13;57.88;101641.59;5012302;28;20069;-63
2021/01/19 03:25:07;;;;;;;5.22;1.23;;;;;;;11.13;57.56;101630.13;5012637;28;20081;-62
2021/01/19 03:27:33;;;;;;;7.68;1.70;;;;;;;11.13;57.91;101625.75;5010417;28;20402;-63
2021/01/19 03:29:58;;;;;;;9.93;1.30;;;;;;;11.13;58.20;101630.13;5012502;28;20068;-62
2021/01/19 03:32:23;;;;;;;9.15;2.90;;;;;;;11.14;58.30;101631.94;5011874;28;20046;-63
2021/01/19 03:34:49;;;;;;;12.10;5.10;;;;;;;11.13;58.28;101636.31;5012827;28;20442;-63
2021/01/19 03:37:14;;;;;;;6.53;1.80;;;;;;;11.14;58.14;101635.47;5012543;28;20088;-63
2021/01/19 03:39:40;;;;;;;5.80;1.75;;;;;;;11.12;57.75;101626.59;5012321;28;20045;-63
2021/01/19 03:42:05;;;;;;;11.90;1.70;;;;;;;11.12;57.62;101629.25;5017320;28;20038;-62
2021/01/19 03:44:30;;;;;;;7.38;1.60;;;;;;;11.13;57.37;101630.13;5031386;28;20049;-63
2021/01/19 03:46:56;;;;;;;11.68;1.40;;;;;;;11.12;57.70;101631.88;5045692;28;20107;-63
2021/01/19 03:49:21;;;;;;;8.43;1.40;;;;;;;11.11;57.54;101635.38;5031489;28;20049;-63
2021/01/19 03:51:46;;;;;;;4.90;1.35;;;;;;;11.07;57.95;101630.88;5031806;28;20494;-63
2021/01/19 03:54:12;;;;;;;5.65;1.20;;;;;;;11.06;57.43;101641.38;5032237;28;20045;-63
2021/01/19 03:56:37;;;;;;;12.52;2.35;;;;;;;11.06;57.11;101646.66;5031208;28;20492;-63
2021/01/19 03:59:03;;;;;;;4.10;1.23;;;;;;;11.05;57.82;101643.13;5031570;28;20493;-63
2021/01/19 04:01:28;;;;;;;13.50;1.30;;;;;;;11.04;57.33;101638.69;5031164;28;20043;-63
2021/01/19 04:03:53;;;;;;;8.70;1.42;;;;;;;11.03;57.28;101644.81;5031276;28;20072;-63
2021/01/19 04:06:19;;;;;;;4.65;1.33;;;;;;;11.03;57.61;101644.81;5030229;28;20050;-63
2021/01/19 04:08:44;;;;;;;8.23;1.73;;;;;;;11.06;56.89;101654.59;5030800;28;20145;-64
2021/01/19 04:11:10;;;;;;;6.55;1.40;;;;;;;11.05;57.61;101644.88;5030934;28;20041;-63
2021/01/19 04:13:35;;;;;;;11.40;1.70;;;;;;;11.06;57.42;101657.25;5030095;28;20033;-63
2021/01/19 04:16:00;;;;;;;11.20;1.30;;;;;;;11.07;57.73;101653.75;5030127;28;20064;-63
2021/01/19 04:18:26;;;;;;;6.43;1.38;;;;;;;11.05;56.81;101656.34;5031032;28;20121;-63
2021/01/19 04:20:51;;;;;;;10.15;1.77;;;;;;;11.05;57.43;101663.38;5031055;28;20042;-63
2021/01/19 04:23:16;;;;;;;10.82;3.78;;;;;;;11.05;57.36;101653.69;5031542;28;20033;-63
2021/01/19 04:25:42;;;;;;;6.72;2.15;;;;;;;11.06;56.81;101659.88;5030840;28;20037;-63
2021/01/19 04:28:07;;;;;;;8.05;1.77;;;;;;;11.07;56.87;101656.41;5031557;28;20033;-63
2021/01/19 04:30:32;;;;;;;14.73;1.70;;;;;;;11.09;57.01;101659.97;5029320;28;20125;-63
2021/01/19 04:32:58;;;;;;;8.57;1.42;;;;;;;11.09;57.33;101662.63;5038616;28;20041;-64
2021/01/19 04:35:23;;;;;;;4.78;1.40;;;;;;;11.08;56.62;101666.13;5011460;28;20041;-63
2021/01/19 04:37:48;;;;;;;10.80;2.45;;;;;;;11.04;57.26;101662.47;5011771;28;20038;-64
2021/01/19 04:40:14;;;;;;;10.98;1.75;;;;;;;11.05;57.27;101666.91;5027708;28;20033;-64
2021/01/19 04:42:39;;;;;;;7.10;1.40;;;;;;;11.06;56.88;101679.28;5022200;28;21293;-64
2021/01/19 04:45:04;;;;;;;5.93;1.25;;;;;;;11.06;57.18;101678.38;5030745;28;20096;-63
2021/01/19 04:47:30;;;;;;;8.27;1.17;;;;;;;11.05;56.99;101671.31;5028574;28;20042;-64
2021/01/19 04:49:55;;;;;;;7.97;1.00;;;;;;;11.03;56.95;101667.72;5030498;28;20461;-63
2021/01/19 04:52:20;;;;;;;13.48;1.33;;;;;;;11.02;57.08;101680.06;5030313;28;20037;-64
2021/01/19 04:54:46;;;;;;;4.10;1.30;;;;;;;10.96;56.05;101673.69;5030637;28;20049;-64
2021/01/19 04:57:11;;;;;;;4.57;1.70;;;;;;;10.97;56.72;101678.09;5030321;28;20490;-64
2021/01/19 04:59:36;;;;;;;5.32;1.10;;;;;;;10.97;56.19;101679.00;5023329;28;20041;-64
2021/01/19 05:02:02;;;;;;;10.20;1.17;;;;;;;10.99;56.83;101672.03;5028331;28;20037;-63
2021/01/19 05:04:27;;;;;;;6.38;1.40;;;;;;;10.99;56.56;101672.03;5029972;28;20076;-64
2021/01/19 05:06:53;;;;;;;3.47;1.40;;;;;;;11.00;56.46;101676.47;5030102;28;20036;-63
2021/01/19 05:09:18;;;;;;;4.80;1.63;;;;;;;11.00;56.04;101671.19;5030685;28;20053;-64
2021/01/19 05:11:44;;;;;;;7.57;1.27;;;;;;;10.97;56.75;101670.19;5030672;28;20092;-64
2021/01/19 05:14:09;;;;;;;9.70;1.83;;;;;;;10.96;56.35;101673.69;5022992;28;20034;-64
2021/01/19 05:16:35;;;;;;;9.85;1.75;;;;;;;10.96;55.86;101669.28;5029932;28;20069;-64
2021/01/19 05:19:00;;;;;;;12.27;5.80;;;;;;;10.98;56.53;101670.22;5030409;28;20041;-64
2021/01/19 05:21:25;;;;;;;7.13;1.35;;;;;;;10.97;55.95;101676.34;5025573;28;20049;-64
2021/01/19 05:23:51;;;;;;;11.57;1.58;;;;;;;10.98;56.19;101688.72;5042806;28;20049;-64
2021/01/19 05:26:16;;;;;;;8.15;1.70;;;;;;;10.98;55.84;101686.09;5045474;28;20040;-64
2021/01/19 05:28:42;;;;;;;8.63;1.52;;;;;;;11.00;56.43;101671.19;5029415;28;20038;-64
2021/01/19 05:31:08;;;;;;;4.57;1.80;;;;;;;11.01;56.41;101688.81;5030116;28;20103;-64
2021/01/19 05:33:33;;;;;;;7.88;1.70;;;;;;;11.04;56.46;101688.91;5029516;28;20045;-64
2021/01/19 05:35:59;;;;;;;6.25;1.58;;;;;;;11.05;55.57;101687.16;5029545;28;20517;-64
2021/01/19 05:38:24;;;;;;;9.20;2.22;;;;;;;11.02;56.17;101692.38;5029059;28;20045;-64
2021/01/19 05:40:49;;;;;;;13.02;2.10;;;;;;;11.00;56.32;101681.75;5029926;28;20445;-64
2021/01/19 05:43:15;;;;;;;21.33;8.68;;;;;;;10.99;55.90;101685.25;5030184;28;20033;-64
2021/01/19 05:45:40;;;;;;;31.75;13.15;;;;;;;10.99;56.12;101682.59;5032174;28;20057;-64
2021/01/19 05:48:05;;;;;;;8.95;4.82;;;;;;;10.99;55.84;101671.13;5028570;28;20060;-64
2021/01/19 05:50:31;;;;;;;28.80;12.20;;;;;;;11.01;56.18;101678.25;5028973;28;20045;-64
2021/01/19 05:52:56;;;;;;;10.35;1.50;;;;;;;11.05;56.41;101682.75;5029564;28;20096;-64
2021/01/19 05:55:21;;;;;;;4.18;1.35;;;;;;;11.09;56.25;101673.19;5029707;28;20037;-64
2021/01/19 05:57:47;;;;;;;5.85;1.52;;;;;;;11.12;55.44;101682.09;5029175;28;20049;-64
2021/01/19 06:00:12;;;;;;;20.63;6.82;;;;;;;11.14;55.83;101668.94;5031507;28;20029;-64
2021/01/19 06:02:37;;;;;;;15.68;5.72;;;;;;;11.17;56.35;101663.72;5033545;28;20552;-64
2021/01/19 06:05:03;;;;;;;17.25;7.35;;;;;;;11.17;55.92;101671.63;5033801;28;20056;-65
2021/01/19 06:07:28;;;;;;;8.70;2.40;;;;;;;11.18;55.30;101671.69;5032969;28;20482;-64
2021/01/19 06:09:53;;;;;;;3.05;1.45;;;;;;;11.22;55.93;101677.06;5033954;28;20525;-64
2021/01/19 06:12:19;;;;;;;7.32;3.22;;;;;;;11.25;55.45;101683.31;5033985;28;20402;-65
2021/01/19 06:14:44;;;;;;;7.45;3.20;;;;;;;11.26;55.31;101676.28;5032133;28;20037;-65
2021/01/19 06:17:10;;;;;;;11.27;2.22;;;;;;;11.27;55.25;101691.31;5049239;28;20037;-65
2021/01/19 06:19:35;;;;;;;6.18;1.40;;;;;;;11.32;55.44;101690.56;5033138;28;20054;-66
2021/01/19 06:22:00;;;;;;;16.52;1.70;;;;;;;11.38;55.48;101696.03;5033072;28;20041;-66
2021/01/19 06:24:26;;;;;;;3.60;1.70;;;;;;;11.40;55.46;101696.97;5030676;28;20030;-65
2021/01/19 06:26:51;;;;;;;6.78;2.30;;;;;;;11.44;55.22;101703.22;5032793;28;20037;-65
2021/01/19 06:29:17;;;;;;;11.65;2.88;;;;;;;11.46;54.99;101699.78;5028757;28;20041;-65
2021/01/19 06:31:43;;;;;;;13.00;2.92;;;;;;;11.54;55.14;101702.63;5014012;28;20410;-65
2021/01/19 06:34:08;;;;;;;10.10;6.15;;;;;;;11.69;54.67;101704.75;5030626;28;20041;-65
2021/01/19 06:36:33;;;;;;;12.20;3.60;;;;;;;11.76;54.07;101706.75;5031335;28;20049;-65
2021/01/19 06:38:59;;;;;;;9.88;2.67;;;;;;;11.79;54.48;101698.91;5030164;28;20061;-65
2021/01/19 06:41:24;;;;;;;5.65;2.03;;;;;;;11.85;54.82;101704.34;5032310;28;20095;-65
2021/01/19 06:43:49;;;;;;;7.25;2.47;;;;;;;11.88;53.72;101702.66;5031311;28;20037;-65
2021/01/19 06:46:15;;;;;;;5.72;2.35;;;;;;;11.89;54.11;101712.38;5026108;28;20534;-65
2021/01/19 06:48:40;;;;;;;6.30;1.17;;;;;;;11.92;54.35;101711.59;5013149;28;20071;-65
2021/01/19 06:51:06;;;;;;;4.93;1.50;;;;;;;12.00;53.44;101701.19;5030399;28;20038;-65
2021/01/19 06:53:31;;;;;;;9.10;1.95;;;;;;;12.36;53.91;101715.31;5032378;28;20038;-65
2021/01/19 06:55:56;;;;;;;9.90;2.13;;;;;;;12.39;53.66;101712.75;5032231;28;20441;-65
2021/01/19 06:58:22;;;;;;;8.43;1.98;;;;;;;12.36;53.58;101710.91;5029353;28;20037;-65
2021/01/19 07:00:47;;;;;;;5.28;2.17;;;;;;;12.28;53.11;101714.22;5022933;28;20050;-65
2021/01/19 07:03:12;;;;;;;7.38;1.88;;;;;;;12.22;52.85;101703.50;5025068;28;20128;-65
2021/01/19 07:05:38;;;;;;;10.27;1.77;;;;;;;12.22;52.87;101716.72;5031801;28;20041;-65
2021/01/19 07:08:03;;;;;;;10.90;2.30;;;;;;;12.20;53.52;101722.00;5032968;28;20524;-65
2021/01/19 07:10:28;;;;;;;5.43;1.75;;;;;;;12.38;52.95;101706.56;5017975;28;20037;-65
2021/01/19 07:12:54;;;;;;;6.47;1.50;;;;;;;12.42;53.02;101727.78;5030568;28;20034;-65
2021/01/19 07:15:19;;;;;;;6.47;1.52;;;;;;;12.62;52.70;101723.84;5023352;28;20056;-65
2021/01/19 07:17:45;;;;;;;5.93;1.50;;;;;;;12.74;53.18;101719.72;5028747;28;20044;-65
2021/01/19 07:20:10;;;;;;;4.03;1.63;;;;;;;12.74;52.18;101719.72;5029527;28;20123;-65
2021/01/19 07:22:35;;;;;;;13.38;2.80;;;;;;;12.77;52.43;101721.56;5030549;28;20047;-65
2021/01/19 07:25:01;;;;;;;4.47;2.58;;;;;;;12.77;52.55;101727.75;5031625;28;20049;-65
2021/01/19 07:27:26;;;;;;;6.20;2.00;;;;;;;12.72;52.27;101740.00;5047421;28;20041;-64
2021/01/19 07:29:51;;;;;;;5.20;2.28;;;;;;;12.61;51.84;101736.22;5014086;28;20046;-65
2021/01/19 07:32:17;;;;;;;3.70;1.13;;;;;;;12.56;52.75;101747.56;5028520;28;20041;-65
2021/01/19 07:34:42;;;;;;;13.00;2.22;;;;;;;12.54;52.03;101751.91;5031913;28;20041;-65
2021/01/19 07:37:07;;;;;;;6.82;2.30;;;;;;;12.54;52.18;101747.50;5032232;28;20425;-65
2021/01/19 07:39:33;;;;;;;6.57;2.25;;;;;;;12.58;51.65;101757.34;5024596;28;20045;-65
2021/01/19 07:41:58;;;;;;;6.93;2.25;;;;;;;12.67;51.82;101754.88;5035733;28;20046;-65
2021/01/19 07:44:24;;;;;;;12.25;2.80;;;;;;;12.75;52.13;101758.63;5030171;28;20049;-65
2021/01/19 07:46:49;;;;;;;8.25;2.17;;;;;;;12.79;51.48;101772.84;5047231;28;20041;-65
2021/01/19 07:49:14;;;;;;;9.43;4.30;;;;;;;12.86;52.34;101765.94;5030911;28;20407;-65
2021/01/19 07:51:42;;;;;;;12.30;3.72;;;;;;;12.82;51.09;101772.91;5031596;28;20410;-66
2021/01/19 07:54:07;;;;;;;6.47;2.90;;;;;;;12.88;51.73;101767.72;5030550;28;20128;-66
2021/01/19 07:56:33;;;;;;;5.63;2.22;;;;;;;12.98;51.44;101769.75;5031258;28;20610;-67
2021/01/19 07:58:58;;;;;;;8.40;1.90;;;;;;;12.99;51.39;101775.94;5011219;28;20460;-66
2021/01/19 08:01:24;;;;;;;10.73;1.30;;;;;;;12.92;51.85;101768.72;5023575;28;20085;-67
2021/01/19 08:03:49;;;;;;;5.57;2.13;;;;;;;12.90;51.52;101778.38;5030435;28;20048;-66
2021/01/19 08:06:14;;;;;;;12.52;4.07;;;;;;;12.90;51.42;101783.66;5038692;28;20065;-68
2021/01/19 08:08:40;;;;;;;18.60;5.45;;;;;;;12.85;51.08;101785.34;5043051;28;20042;-68
2021/01/19 08:11:05;;;;;;;3.28;1.20;;;;;;;12.89;50.49;101784.53;5031818;28;20038;-68
2021/01/19 08:13:30;;;;;;;10.02;2.95;;;;;;;12.94;50.69;101788.16;5030858;28;20053;-74
2021/01/19 08:15:56;;;;;;;7.93;2.05;;;;;;;12.91;51.25;101783.72;5031860;28;20037;-68
2021/01/19 08:18:21;;;;;;;4.22;2.08;;;;;;;12.93;51.05;101789.06;5031285;28;20593;-66
2021/01/19 08:20:47;;;;;;;4.45;2.15;;;;;;;12.99;50.96;101790.09;5028864;28;20041;-66
2021/01/19 08:23:12;;;;;;;8.27;1.92;;;;;;;13.05;50.52;101781.38;5030963;28;20029;-67
2021/01/19 08:25:38;;;;;;;6.88;3.33;;;;;;;13.08;50.40;101782.31;5026977;28;20415;-67
2021/01/19 08:28:03;;;;;;;10.63;3.63;;;;;;;13.23;50.46;101789.75;5038795;28;20037;-67
2021/01/19 08:30:30;;;;;;;8.45;4.30;;;;;;;13.22;50.15;101795.91;5022111;28;20042;-67
2021/01/19 08:32:55;;;;;;;7.03;2.45;;;;;;;13.18;50.25;101804.69;5014886;28;20092;-67
2021/01/19 08:35:21;;;;;;;11.63;3.80;;;;;;;13.15;50.62;101804.59;5015718;28;20453;-69
2021/01/19 08:37:46;;;;;;;8.35;1.80;;;;;;;13.23;50.47;101807.41;5027935;28;20091;-70
2021/01/19 08:40:11;;;;;;;11.52;3.20;;;;;;;13.34;49.74;101808.53;5030152;28;20118;-71
2021/01/19 08:42:37;;;;;;;4.30;1.70;;;;;;;13.39;50.21;101807.75;5029332;28;20095;-68
2021/01/19 08:45:02;;;;;;;6.97;1.73;;;;;;;13.55;49.84;101796.59;5030160;28;20156;-67
2021/01/19 08:47:28;;;;;;;5.43;2.10;;;;;;;13.71;49.34;101810.19;5030749;28;20045;-67
2021/01/19 08:49:54;;;;;;;6.45;2.80;;;;;;;13.79;49.75;101803.25;5030008;28;20514;-67
2021/01/19 08:52:19;;;;;;;11.23;3.20;;;;;;;13.76;48.95;101796.13;5029739;28;20363;-67
2021/01/19 08:54:45;;;;;;;6.10;3.53;;;;;;;13.76;48.69;101801.44;5030640;28;20037;-69
2021/01/19 08:57:10;;;;;;;12.32;6.78;;;;;;;13.82;49.06;101790.03;5028087;28;20065;-67
2021/01/19 08:59:35;;;;;;;7.40;4.00;;;;;;;13.92;49.09;101792.00;5016596;28;20440;-68
2021/01/19 09:02:01;;;;;;;8.45;2.30;;;;;;;14.01;48.83;101797.47;5022304;28;20037;-68
2021/01/19 09:04:26;;;;;;;6.55;2.92;;;;;;;13.96;49.04;101797.41;5029365;28;20073;-78
2021/01/19 09:06:51;;;;;;;9.27;3.30;;;;;;;13.97;49.01;101793.00;5047351;28;20099;-68
2021/01/19 09:09:18;;;;;;;18.35;3.33;;;;;;;14.05;48.81;101801.97;5030450;28;20045;-68
2021/01/19 09:11:43;;;;;;;4.63;2.72;;;;;;;14.07;48.57;101794.03;5029496;28;20037;-67
2021/01/19 09:14:09;;;;;;;7.75;3.22;;;;;;;14.01;48.51;101796.59;5023022;28;20048;-68
2021/01/19 09:16:34;;;;;;;9.05;2.80;;;;;;;13.94;48.74;101793.81;5027628;28;20092;-66
2021/01/19 09:19:00;;;;;;;6.30;2.88;;;;;;;13.98;48.77;101788.59;5030359;28;20084;-68
2021/01/19 09:21:25;;;;;;;8.02;2.85;;;;;;;14.00;48.74;101784.19;5020187;28;20690;-67
2021/01/19 09:23:50;;;;;;;9.43;2.13;;;;;;;14.04;48.32;101783.38;5017109;28;20042;-67
2021/01/19 09:26:16;;;;;;;13.50;4.10;;;;;;;13.94;47.92;101790.28;5006609;28;20045;-69
2021/01/19 09:28:41;;;;;;;15.70;4.30;;;;;;;13.92;48.27;101787.59;5006963;28;20056;-69
2021/01/19 09:31:06;;;;;;;13.05;3.33;;;;;;;13.96;48.31;101781.47;5022525;28;20661;-69
2021/01/19 09:33:32;;;;;;;9.15;3.58;;;;;;;13.99;47.64;101788.59;5049538;28;20072;-66
2021/01/19 09:35:57;;;;;;;4.70;2.10;;;;;;;14.02;47.79;101786.00;5049703;28;20517;-66
2021/01/19 09:38:24;;;;;;;8.07;3.50;;;;;;;14.03;47.88;101777.19;5009514;28;20046;-67
2021/01/19 09:40:49;;;;;;;7.15;2.20;;;;;;;14.04;48.18;101781.63;5020092;28;20042;-67
2021/01/19 09:43:14;;;;;;;9.27;4.30;;;;;;;14.17;47.36;101780.06;5004013;28;20042;-67
2021/01/19 09:45:40;;;;;;;12.90;5.63;;;;;;;14.25;47.36;101773.09;5022730;28;20050;-70
2021/01/19 09:48:05;;;;;;;10.23;4.20;;;;;;;14.33;47.07;101764.41;5041872;28;20506;-69
2021/01/19 09:50:31;;;;;;;8.50;4.80;;;;;;;14.37;47.47;101757.41;5003646;28;20046;-69
2021/01/19 09:52:56;;;;;;;7.38;3.80;;;;;;;14.34;46.93;101760.00;4996303;28;20053;-69
2021/01/19 09:55:21;;;;;;;9.13;5.18;;;;;;;14.46;46.78;101761.97;5035801;28;20041;-71
2021/01/19 09:57:47;;;;;;;12.45;6.90;;;;;;;14.53;46.81;101756.78;5019611;28;20042;-68
2021/01/19 10:00:12;;;;;;;12.10;5.60;;;;;;;14.59;46.95;101745.34;4999965;28;20077;-69
2021/01/19 10:02:38;;;;;;;14.13;6.90;;;;;;;14.86;46.56;101748.41;5016287;28;20041;-64
2021/01/19 10:05:03;;;;;;;6.40;2.10;;;;;;;14.91;46.65;101748.47;5029857;28;20046;-62
2021/01/19 10:07:29;;;;;;;6.50;3.95;;;;;;;14.72;46.46;101742.91;5027720;28;20037;-65
2021/01/19 10:09:55;;;;;;;6.40;2.42;;;;;;;14.65;46.61;101740.13;5017177;28;20072;-70
2021/01/19 10:12:20;;;;;;;14.65;5.88;;;;;;;14.61;46.26;101746.28;5009937;28;20533;-67
2021/01/19 10:14:46;;;;;;;10.82;3.45;;;;;;;14.53;46.40;101743.50;5008934;28;20495;-64
2021/01/19 10:17:11;;;;;;;13.73;4.63;;;;;;;14.36;46.73;101744.97;5003499;28;20042;-63
2021/01/19 10:19:37;;;;;;;6.32;2.70;;;;;;;14.25;46.52;101739.47;5009713;28;20153;-66
2021/01/19 10:22:02;;;;;;;45.33;23.55;;;;;;;14.23;46.42;101737.69;5010033;28;20034;-66
2021/01/19 10:24:27;;;;;;;9.70;3.80;;;;;;;14.20;46.65;101730.53;5009521;28;20049;-65
2021/01/19 10:26:53;;;;;;;13.35;3.58;;;;;;;14.28;46.36;101731.56;5009633;28;20091;-65
2021/01/19 10:29:18;;;;;;;8.55;3.28;;;;;;;14.36;46.67;101724.63;5006137;28;20045;-64
2021/01/19 10:31:43;;;;;;;10.95;6.88;;;;;;;14.35;46.38;101724.59;5045827;28;20049;-66
2021/01/19 10:34:13;;;;;;;8.32;2.47;;;;;;;14.43;46.53;101723.00;5013921;28;20192;-65
2021/01/19 10:36:40;;;;;;;6.22;3.47;;;;;;;14.51;46.08;101733.72;5009393;28;20050;-66
2021/01/19 10:39:05;;;;;;;15.13;4.78;;;;;;;14.52;45.91;101724.88;5009754;28;20038;-66
2021/01/19 10:41:31;;;;;;;9.15;4.30;;;;;;;14.43;46.03;101724.75;5009070;28;20042;-70
2021/01/19 10:43:56;;;;;;;9.93;5.18;;;;;;;14.34;46.05;101720.16;5009762;28;20049;-64
2021/01/19 10:46:22;;;;;;;6.63;2.45;;;;;;;14.31;46.07;101715.66;5050764;28;20045;-69
2021/01/19 10:48:47;;;;;;;5.47;2.08;;;;;;;14.29;46.28;101720.09;5016386;28;20043;-62
2021/01/19 10:51:12;;;;;;;8.27;4.57;;;;;;;14.33;45.98;101731.63;5008783;28;20053;-67
2021/01/19 10:53:41;;;;;;;8.38;2.63;;;;;;;14.37;45.94;101722.88;5015257;28;20075;-65
2021/01/19 10:56:06;;;;;;;4.75;1.40;;;;;;;14.36;46.03;101723.72;5028459;28;20120;-65
2021/01/19 10:58:32;;;;;;;3.80;1.08;;;;;;;14.32;46.05;101712.13;5040970;28;20190;-65
2021/01/19 11:00:57;;;;;;;5.35;1.88;;;;;;;14.22;45.68;101731.47;5031669;28;20033;-64
2021/01/19 11:03:22;;;;;;;3.88;1.20;;;;;;;14.17;46.04;101722.53;5031714;28;20394;-64
2021/01/19 11:05:50;;;;;;;10.13;2.17;;;;;;;14.16;45.95;101720.75;5031910;28;20045;-64
2021/01/19 11:08:16;;;;;;;6.55;4.38;;;;;;;14.23;46.15;101724.41;5032740;28;20036;-66
2021/01/19 11:10:41;;;;;;;4.20;2.22;;;;;;;14.34;46.19;101710.41;5030479;28;20042;-65
2021/01/19 11:13:06;;;;;;;5.70;1.52;;;;;;;14.37;45.99;101720.22;5030916;28;20091;-67